Ana Sayfa
METAR-TAF:

METAR-TAF

Havaalanları :

Beaver Island Airport

Beaver Island, Michigan, Amerika Birleşik Devletleri

Enlem: 45-41-32N, Boylam: 085-33-59W, yükseklik: 204 m

Güncel hava durumu gözlemi

Rapor saat 16:19 UTC de 12 dakika önce yapıldı.
Rüzgar batıdan 6 kt
Sıcaklık 21°C
Nem 69%
Basınç 1014 hPa
Görüş mesafesi: 16.1 km
6000 ft yükseklikte parçalı bulutlu
6500 ft yükseklikte parçalı çok bulutlu

METAR: KSJX 211619Z AUTO 28006KT 10SM SCT060 BKN065 21/15 A2993 RMK AO2 T02110146

Saat: 12:31 (16:31 UTC)


TAF: eksik

4.000'den fazla havaalanı için hava durumu gözlemleri ve tahminleri (METAR ve TAF raporları).

Kullanılabilir istasyonlar harita üzerinde sarı ve kırmızı noktalarla gösterilir.

İstasyonun adını görmek için fareyi noktanın üzerinde gezdirin.

Sonrasında hava gözlem ve tahminlerini görmek için tıklayın.

Haritayı değiştirmek için: yaklaştırmak için siyah artı işaretli yeşil düğmeye ve uzaklaştırmak için de eksi işaretli düğmeye hızla tıklayın; bitişik haritalar için yeşil okları kullanın.


METAR-TAF: